sensor_id;sensor_type;location;lat;lon;timestamp;pressure;altitude;pressure_sealevel;temperature;humidity
57948;BME280;43754;56.992;24.292;2023-05-07T00:00:40;103038.84;;;-0.28;85.69
57948;BME280;43754;56.992;24.292;2023-05-07T00:03:12;103039.84;;;-0.32;85.87
57948;BME280;43754;56.992;24.292;2023-05-07T00:05:45;103043.41;;;-0.33;85.85
57948;BME280;43754;56.992;24.292;2023-05-07T00:08:19;103040.88;;;-0.36;85.51
57948;BME280;43754;56.992;24.292;2023-05-07T00:10:52;103044.41;;;-0.37;84.47
57948;BME280;43754;56.992;24.292;2023-05-07T00:13:24;103046.38;;;-0.42;84.54
57948;BME280;43754;56.992;24.292;2023-05-07T00:15:56;103047.31;;;-0.44;84.54
57948;BME280;43754;56.992;24.292;2023-05-07T00:18:28;103043.06;;;-0.49;84.26
57948;BME280;43754;56.992;24.292;2023-05-07T00:21:00;103050.19;;;-0.51;84.01
57948;BME280;43754;56.992;24.292;2023-05-07T00:23:33;103045.88;;;-0.53;84.52
57948;BME280;43754;56.992;24.292;2023-05-07T00:26:05;103048.63;;;-0.56;84.49
57948;BME280;43754;56.992;24.292;2023-05-07T00:28:37;103042.53;;;-0.58;84.55
57948;BME280;43754;56.992;24.292;2023-05-07T00:31:09;103049.69;;;-0.62;84.68
57948;BME280;43754;56.992;24.292;2023-05-07T00:33:41;103049.75;;;-0.63;84.22
57948;BME280;43754;56.992;24.292;2023-05-07T00:36:13;103050.63;;;-0.63;84.43
57948;BME280;43754;56.992;24.292;2023-05-07T00:38:47;103049.81;;;-0.66;85.15
57948;BME280;43754;56.992;24.292;2023-05-07T00:41:19;103046.41;;;-0.68;84.59
57948;BME280;43754;56.992;24.292;2023-05-07T00:43:51;103042.00;;;-0.68;84.54
57948;BME280;43754;56.992;24.292;2023-05-07T00:46:23;103046.44;;;-0.70;83.96
57948;BME280;43754;56.992;24.292;2023-05-07T00:48:56;103044.72;;;-0.71;84.72
57948;BME280;43754;56.992;24.292;2023-05-07T00:51:29;103044.78;;;-0.72;84.16
57948;BME280;43754;56.992;24.292;2023-05-07T00:54:03;103041.31;;;-0.74;84.60
57948;BME280;43754;56.992;24.292;2023-05-07T00:56:36;103045.81;;;-0.76;84.29
57948;BME280;43754;56.992;24.292;2023-05-07T00:59:10;103048.53;;;-0.79;85.08
57948;BME280;43754;56.992;24.292;2023-05-07T01:01:42;103046.09;;;-0.85;84.54
57948;BME280;43754;56.992;24.292;2023-05-07T01:04:14;103057.41;;;-0.83;85.31
57948;BME280;43754;56.992;24.292;2023-05-07T01:06:47;103048.78;;;-0.87;85.28
57948;BME280;43754;56.992;24.292;2023-05-07T01:09:20;103054.91;;;-0.86;85.53
57948;BME280;43754;56.992;24.292;2023-05-07T01:11:53;103062.78;;;-0.86;86.03
57948;BME280;43754;56.992;24.292;2023-05-07T01:14:25;103061.91;;;-0.85;85.31
57948;BME280;43754;56.992;24.292;2023-05-07T01:16:58;103064.38;;;-0.81;84.74
57948;BME280;43754;56.992;24.292;2023-05-07T01:19:31;103064.50;;;-0.84;85.47
57948;BME280;43754;56.992;24.292;2023-05-07T01:22:08;103068.03;;;-0.85;85.36
57948;BME280;43754;56.992;24.292;2023-05-07T01:24:50;103063.56;;;-0.83;85.42
57948;BME280;43754;56.992;24.292;2023-05-07T01:27:23;103067.94;;;-0.83;85.11
57948;BME280;43754;56.992;24.292;2023-05-07T01:29:56;103075.72;;;-0.79;85.37
57948;BME280;43754;56.992;24.292;2023-05-07T01:32:32;103080.91;;;-0.76;85.38
57948;BME280;43754;56.992;24.292;2023-05-07T01:35:11;103072.94;;;-0.74;85.80
57948;BME280;43754;56.992;24.292;2023-05-07T01:37:44;103074.63;;;-0.72;84.72
57948;BME280;43754;56.992;24.292;2023-05-07T01:40:18;103078.13;;;-0.71;84.58
57948;BME280;43754;56.992;24.292;2023-05-07T01:42:50;103072.94;;;-0.74;84.10
57948;BME280;43754;56.992;24.292;2023-05-07T01:45:22;103073.03;;;-0.77;85.24
57948;BME280;43754;56.992;24.292;2023-05-07T01:47:55;103078.25;;;-0.76;85.32
57948;BME280;43754;56.992;24.292;2023-05-07T01:50:28;103072.94;;;-0.74;85.76
57948;BME280;43754;56.992;24.292;2023-05-07T01:53:01;103080.78;;;-0.73;85.17
57948;BME280;43754;56.992;24.292;2023-05-07T01:55:35;103076.38;;;-0.72;85.24
57948;BME280;43754;56.992;24.292;2023-05-07T01:58:08;103077.19;;;-0.70;85.32
57948;BME280;43754;56.992;24.292;2023-05-07T02:00:41;103075.66;;;-0.77;85.07
57948;BME280;43754;56.992;24.292;2023-05-07T02:03:13;103085.47;;;-0.82;84.55
57948;BME280;43754;56.992;24.292;2023-05-07T02:05:53;103085.44;;;-0.81;84.90
57948;BME280;43754;56.992;24.292;2023-05-07T02:08:37;103086.31;;;-0.80;84.85
57948;BME280;43754;56.992;24.292;2023-05-07T02:11:11;103083.75;;;-0.83;85.03
57948;BME280;43754;56.992;24.292;2023-05-07T02:13:43;103087.31;;;-0.84;84.66
57948;BME280;43754;56.992;24.292;2023-05-07T02:16:15;103090.84;;;-0.85;84.99
57948;BME280;43754;56.992;24.292;2023-05-07T02:18:47;103085.78;;;-0.92;84.34
57948;BME280;43754;56.992;24.292;2023-05-07T02:21:20;103085.88;;;-0.95;85.48
57948;BME280;43754;56.992;24.292;2023-05-07T02:23:52;103089.34;;;-0.93;85.32
57948;BME280;43754;56.992;24.292;2023-05-07T02:26:25;103085.59;;;-0.85;84.73
57948;BME280;43754;56.992;24.292;2023-05-07T02:28:57;103085.44;;;-0.81;84.91
57948;BME280;43754;56.992;24.292;2023-05-07T02:31:29;103086.19;;;-0.77;84.82
57948;BME280;43754;56.992;24.292;2023-05-07T02:34:02;103092.19;;;-0.72;84.62
57948;BME280;43754;56.992;24.292;2023-05-07T02:36:34;103091.34;;;-0.74;85.31
57948;BME280;43754;56.992;24.292;2023-05-07T02:39:14;103092.19;;;-0.72;86.04
57948;BME280;43754;56.992;24.292;2023-05-07T02:41:48;103094.00;;;-0.74;84.81
57948;BME280;43754;56.992;24.292;2023-05-07T02:44:20;103101.81;;;-0.71;84.38
57948;BME280;43754;56.992;24.292;2023-05-07T02:46:55;103100.13;;;-0.74;84.13
57948;BME280;43754;56.992;24.292;2023-05-07T02:49:27;103096.63;;;-0.74;84.45
57948;BME280;43754;56.992;24.292;2023-05-07T02:51:59;103106.38;;;-0.76;85.17
57948;BME280;43754;56.992;24.292;2023-05-07T02:54:31;103104.38;;;-0.70;84.74
57948;BME280;43754;56.992;24.292;2023-05-07T02:57:05;103105.06;;;-0.63;84.60
57948;BME280;43754;56.992;24.292;2023-05-07T02:59:37;103097.94;;;-0.61;84.53
57948;BME280;43754;56.992;24.292;2023-05-07T03:02:09;103106.56;;;-0.56;83.78
57948;BME280;43754;56.992;24.292;2023-05-07T03:04:41;103106.56;;;-0.56;84.31
57948;BME280;43754;56.992;24.292;2023-05-07T03:07:14;103099.47;;;-0.54;83.56
57948;BME280;43754;56.992;24.292;2023-05-07T03:09:46;103107.28;;;-0.51;83.16
57948;BME280;43754;56.992;24.292;2023-05-07T03:12:19;103106.31;;;-0.49;82.79
57948;BME280;43754;56.992;24.292;2023-05-07T03:14:51;103114.16;;;-0.47;82.08
57948;BME280;43754;56.992;24.292;2023-05-07T03:17:23;103107.06;;;-0.45;82.44
57948;BME280;43754;56.992;24.292;2023-05-07T03:19:55;103110.41;;;-0.40;82.70
57948;BME280;43754;56.992;24.292;2023-05-07T03:22:28;103108.53;;;-0.36;82.27
57948;BME280;43754;56.992;24.292;2023-05-07T03:25:00;103115.41;;;-0.32;82.72
57948;BME280;43754;56.992;24.292;2023-05-07T03:27:33;103114.50;;;-0.31;83.24
57948;BME280;43754;56.992;24.292;2023-05-07T03:30:08;103111.69;;;-0.25;82.42
57948;BME280;43754;56.992;24.292;2023-05-07T03:32:40;103114.25;;;-0.24;81.74
57948;BME280;43754;56.992;24.292;2023-05-07T03:35:15;103123.75;;;-0.20;81.85
57948;BME280;43754;56.992;24.292;2023-05-07T03:37:47;103109.56;;;-0.16;81.13
57948;BME280;43754;56.992;24.292;2023-05-07T03:40:20;103113.03;;;-0.14;81.13
57948;BME280;43754;56.992;24.292;2023-05-07T03:42:57;103111.19;;;-0.12;80.84
57948;BME280;43754;56.992;24.292;2023-05-07T03:45:31;103118.06;;;-0.08;80.61
57948;BME280;43754;56.992;24.292;2023-05-07T03:48:13;103124.78;;;0.01;79.97
57948;BME280;43754;56.992;24.292;2023-05-07T03:50:46;103131.66;;;0.05;78.81
57948;BME280;43754;56.992;24.292;2023-05-07T03:53:21;103134.97;;;0.12;79.01
57948;BME280;43754;56.992;24.292;2023-05-07T03:55:54;103127.75;;;0.17;78.07
57948;BME280;43754;56.992;24.292;2023-05-07T03:58:27;103129.25;;;0.24;77.81
57948;BME280;43754;56.992;24.292;2023-05-07T04:01:03;103139.03;;;0.45;76.37
57948;BME280;43754;56.992;24.292;2023-05-07T04:03:35;103144.28;;;0.68;75.88
57948;BME280;43754;56.992;24.292;2023-05-07T04:06:08;103143.53;;;0.88;75.03
57948;BME280;43754;56.992;24.292;2023-05-07T04:08:41;103146.66;;;1.21;73.98
57948;BME280;43754;56.992;24.292;2023-05-07T04:11:13;103143.41;;;1.36;72.29
57948;BME280;43754;56.992;24.292;2023-05-07T04:13:46;103142.69;;;2.15;69.71
57948;BME280;43754;56.992;24.292;2023-05-07T04:16:23;103147.31;;;2.88;66.51
57948;BME280;43754;56.992;24.292;2023-05-07T04:18:55;103153.06;;;3.33;64.07
57948;BME280;43754;56.992;24.292;2023-05-07T04:21:27;103141.81;;;3.81;63.18
57948;BME280;43754;56.992;24.292;2023-05-07T04:24:00;103152.00;;;4.23;60.60
57948;BME280;43754;56.992;24.292;2023-05-07T04:26:33;103147.19;;;4.80;60.25
57948;BME280;43754;56.992;24.292;2023-05-07T04:29:07;103142.66;;;5.29;58.17
57948;BME280;43754;56.992;24.292;2023-05-07T04:31:39;103143.59;;;5.73;56.81
57948;BME280;43754;56.992;24.292;2023-05-07T04:34:11;103146.34;;;6.01;54.45
57948;BME280;43754;56.992;24.292;2023-05-07T04:36:43;103138.81;;;6.38;54.29
57948;BME280;43754;56.992;24.292;2023-05-07T04:39:17;103148.25;;;6.72;53.08
57948;BME280;43754;56.992;24.292;2023-05-07T04:41:51;103147.31;;;7.14;52.51
57948;BME280;43754;56.992;24.292;2023-05-07T04:44:25;103148.09;;;7.43;52.93
57948;BME280;43754;56.992;24.292;2023-05-07T04:46:58;103145.69;;;7.65;50.59
57948;BME280;43754;56.992;24.292;2023-05-07T04:49:30;103145.84;;;7.76;49.24
57948;BME280;43754;56.992;24.292;2023-05-07T04:52:03;103145.13;;;7.86;49.83
57948;BME280;43754;56.992;24.292;2023-05-07T04:54:36;103142.56;;;7.98;51.25
57948;BME280;43754;56.992;24.292;2023-05-07T04:57:09;103148.78;;;8.23;50.34
57948;BME280;43754;56.992;24.292;2023-05-07T04:59:42;103145.28;;;8.48;48.76
57948;BME280;43754;56.992;24.292;2023-05-07T05:02:15;103150.78;;;8.47;48.80
57948;BME280;43754;56.992;24.292;2023-05-07T05:04:51;103154.94;;;8.51;48.04
57948;BME280;43754;56.992;24.292;2023-05-07T05:07:23;103156.09;;;8.72;47.74
57948;BME280;43754;56.992;24.292;2023-05-07T05:09:56;103149.06;;;9.07;47.51
57948;BME280;43754;56.992;24.292;2023-05-07T05:12:29;103151.22;;;9.39;46.06
57948;BME280;43754;56.992;24.292;2023-05-07T05:15:06;103158.72;;;9.57;43.64
57948;BME280;43754;56.992;24.292;2023-05-07T05:17:39;103158.88;;;9.67;45.70
57948;BME280;43754;56.992;24.292;2023-05-07T05:20:12;103150.69;;;9.92;45.05
57948;BME280;43754;56.992;24.292;2023-05-07T05:22:45;103151.63;;;10.15;44.44
57948;BME280;43754;56.992;24.292;2023-05-07T05:25:18;103148.66;;;10.07;41.86
57948;BME280;43754;56.992;24.292;2023-05-07T05:27:50;103154.59;;;9.99;41.84
57948;BME280;43754;56.992;24.292;2023-05-07T05:30:24;103150.53;;;9.83;42.21
57948;BME280;43754;56.992;24.292;2023-05-07T05:32:56;103146.72;;;10.09;41.99
57948;BME280;43754;56.992;24.292;2023-05-07T05:35:31;103147.06;;;10.39;41.80
57948;BME280;43754;56.992;24.292;2023-05-07T05:38:07;103152.25;;;10.19;40.45
57948;BME280;43754;56.992;24.292;2023-05-07T05:40:39;103151.53;;;10.28;41.61
57948;BME280;43754;56.992;24.292;2023-05-07T05:43:11;103151.94;;;10.45;40.59
57948;BME280;43754;56.992;24.292;2023-05-07T05:45:45;103158.75;;;10.38;40.38
57948;BME280;43754;56.992;24.292;2023-05-07T05:48:17;103157.03;;;10.48;42.20
57948;BME280;43754;56.992;24.292;2023-05-07T05:50:50;103156.56;;;10.88;40.89
57948;BME280;43754;56.992;24.292;2023-05-07T05:53:23;103160.56;;;11.16;40.92
57948;BME280;43754;56.992;24.292;2023-05-07T05:55:55;103163.56;;;11.33;38.57
57948;BME280;43754;56.992;24.292;2023-05-07T05:58:27;103160.16;;;11.31;39.28
57948;BME280;43754;56.992;24.292;2023-05-07T06:01:05;103164.03;;;11.49;38.57
57948;BME280;43754;56.992;24.292;2023-05-07T06:03:40;103162.13;;;11.61;39.25
57948;BME280;43754;56.992;24.292;2023-05-07T06:06:17;103169.22;;;11.62;37.98
57948;BME280;43754;56.992;24.292;2023-05-07T06:08:50;103166.06;;;11.57;38.47
57948;BME280;43754;56.992;24.292;2023-05-07T06:11:26;103164.81;;;11.61;38.99
57948;BME280;43754;56.992;24.292;2023-05-07T06:13:59;103155.47;;;11.87;37.66
57948;BME280;43754;56.992;24.292;2023-05-07T06:16:33;103163.66;;;12.07;38.14
57948;BME280;43754;56.992;24.292;2023-05-07T06:19:07;103161.31;;;12.34;37.72
57948;BME280;43754;56.992;24.292;2023-05-07T06:21:39;103166.03;;;12.21;35.63
57948;BME280;43754;56.992;24.292;2023-05-07T06:24:11;103169.88;;;11.54;36.91
57948;BME280;43754;56.992;24.292;2023-05-07T06:26:44;103170.22;;;11.72;37.37
57948;BME280;43754;56.992;24.292;2023-05-07T06:29:17;103164.69;;;12.06;37.13
57948;BME280;43754;56.992;24.292;2023-05-07T06:31:51;103164.72;;;12.36;37.52
57948;BME280;43754;56.992;24.292;2023-05-07T06:34:24;103165.63;;;12.46;35.20
57948;BME280;43754;56.992;24.292;2023-05-07T06:36:56;103166.81;;;12.32;37.37
57948;BME280;43754;56.992;24.292;2023-05-07T06:39:37;103167.75;;;12.42;36.06
57948;BME280;43754;56.992;24.292;2023-05-07T06:42:09;103168.47;;;12.24;35.60
57948;BME280;43754;56.992;24.292;2023-05-07T06:44:45;103167.22;;;12.28;35.81
57948;BME280;43754;56.992;24.292;2023-05-07T06:47:21;103164.47;;;12.39;35.60
57948;BME280;43754;56.992;24.292;2023-05-07T06:49:56;103172.69;;;12.68;35.67
57948;BME280;43754;56.992;24.292;2023-05-07T06:52:32;103163.16;;;12.33;34.19
57948;BME280;43754;56.992;24.292;2023-05-07T06:55:05;103170.25;;;12.34;34.67
57948;BME280;43754;56.992;24.292;2023-05-07T06:57:38;103160.84;;;12.50;34.16
57948;BME280;43754;56.992;24.292;2023-05-07T07:00:11;103164.09;;;12.23;33.54
57948;BME280;43754;56.992;24.292;2023-05-07T07:02:52;103161.59;;;12.31;34.21
57948;BME280;43754;56.992;24.292;2023-05-07T07:05:27;103162.44;;;12.62;34.61
57948;BME280;43754;56.992;24.292;2023-05-07T07:08:01;103168.69;;;12.62;32.42
57948;BME280;43754;56.992;24.292;2023-05-07T07:10:33;103167.28;;;12.37;31.91
57948;BME280;43754;56.992;24.292;2023-05-07T07:13:06;103158.38;;;12.16;32.29
57948;BME280;43754;56.992;24.292;2023-05-07T07:15:39;103156.91;;;12.33;33.24
57948;BME280;43754;56.992;24.292;2023-05-07T07:18:13;103156.66;;;12.66;33.38
57948;BME280;43754;56.992;24.292;2023-05-07T07:20:47;103154.03;;;12.76;31.54
57948;BME280;43754;56.992;24.292;2023-05-07T07:23:19;103157.97;;;13.02;30.92
57948;BME280;43754;56.992;24.292;2023-05-07T07:25:51;103154.69;;;13.08;30.98
57948;BME280;43754;56.992;24.292;2023-05-07T07:28:24;103158.03;;;13.21;30.80
57948;BME280;43754;56.992;24.292;2023-05-07T07:30:57;103154.81;;;13.07;29.48
57948;BME280;43754;56.992;24.292;2023-05-07T07:33:30;103151.16;;;13.08;30.40
57948;BME280;43754;56.992;24.292;2023-05-07T07:36:02;103160.59;;;13.32;30.86
57948;BME280;43754;56.992;24.292;2023-05-07T07:38:35;103155.22;;;13.61;30.60
57948;BME280;43754;56.992;24.292;2023-05-07T07:41:08;103156.81;;;13.64;31.22
57948;BME280;43754;56.992;24.292;2023-05-07T07:43:40;103157.81;;;13.63;30.54
57948;BME280;43754;56.992;24.292;2023-05-07T07:46:12;103158.34;;;13.57;29.76
57948;BME280;43754;56.992;24.292;2023-05-07T07:48:49;103154.41;;;13.51;29.96
57948;BME280;43754;56.992;24.292;2023-05-07T07:51:21;103150.00;;;13.01;30.27
57948;BME280;43754;56.992;24.292;2023-05-07T07:53:53;103150.66;;;13.14;30.63
57948;BME280;43754;56.992;24.292;2023-05-07T07:56:26;103144.44;;;13.23;29.56
57948;BME280;43754;56.992;24.292;2023-05-07T07:58:58;103158.56;;;13.15;30.31
57948;BME280;43754;56.992;24.292;2023-05-07T08:01:30;103159.22;;;12.98;29.86
57948;BME280;43754;56.992;24.292;2023-05-07T08:04:05;103152.25;;;12.96;29.68
57948;BME280;43754;56.992;24.292;2023-05-07T08:06:41;103150.66;;;13.14;30.27
57948;BME280;43754;56.992;24.292;2023-05-07T08:09:14;103153.09;;;13.36;29.54
57948;BME280;43754;56.992;24.292;2023-05-07T08:11:46;103145.88;;;13.27;28.95
57948;BME280;43754;56.992;24.292;2023-05-07T08:14:19;103144.19;;;12.96;29.12
57948;BME280;43754;56.992;24.292;2023-05-07T08:16:52;103149.00;;;13.51;30.70
57948;BME280;43754;56.992;24.292;2023-05-07T08:19:26;103148.44;;;13.67;29.19
57948;BME280;43754;56.992;24.292;2023-05-07T08:21:58;103137.09;;;13.73;28.69
57948;BME280;43754;56.992;24.292;2023-05-07T08:24:30;103135.97;;;13.75;30.41
57948;BME280;43754;56.992;24.292;2023-05-07T08:27:03;103137.25;;;13.71;29.33
57948;BME280;43754;56.992;24.292;2023-05-07T08:29:35;103135.06;;;14.13;29.77
57948;BME280;43754;56.992;24.292;2023-05-07T08:32:07;103128.09;;;14.20;29.01
57948;BME280;43754;56.992;24.292;2023-05-07T08:34:40;103127.97;;;14.12;28.20
57948;BME280;43754;56.992;24.292;2023-05-07T08:37:12;103126.78;;;14.24;29.56
57948;BME280;43754;56.992;24.292;2023-05-07T08:39:45;103125.56;;;14.19;28.80
57948;BME280;43754;56.992;24.292;2023-05-07T08:42:23;103118.00;;;14.22;29.77
57948;BME280;43754;56.992;24.292;2023-05-07T08:44:57;103110.72;;;14.33;29.10
57948;BME280;43754;56.992;24.292;2023-05-07T08:47:36;103110.28;;;14.56;29.22
57948;BME280;43754;56.992;24.292;2023-05-07T08:50:11;103102.66;;;14.97;30.39
57948;BME280;43754;56.992;24.292;2023-05-07T08:52:44;103111.25;;;15.10;29.04
57948;BME280;43754;56.992;24.292;2023-05-07T08:55:17;103114.97;;;15.27;29.48
57948;BME280;43754;56.992;24.292;2023-05-07T08:57:50;103113.88;;;15.19;29.00
57948;BME280;43754;56.992;24.292;2023-05-07T09:00:22;103112.34;;;15.17;29.49
57948;BME280;43754;56.992;24.292;2023-05-07T09:02:57;103111.91;;;15.39;28.84
57948;BME280;43754;56.992;24.292;2023-05-07T09:05:31;103114.91;;;15.36;27.71
57948;BME280;43754;56.992;24.292;2023-05-07T09:08:05;103105.50;;;15.40;28.58
57948;BME280;43754;56.992;24.292;2023-05-07T09:10:38;103113.50;;;15.14;27.45
57948;BME280;43754;56.992;24.292;2023-05-07T09:13:11;103106.38;;;14.68;27.52
57948;BME280;43754;56.992;24.292;2023-05-07T09:15:47;103102.34;;;15.00;29.91
57948;BME280;43754;56.992;24.292;2023-05-07T09:18:20;103104.03;;;15.46;29.18
57948;BME280;43754;56.992;24.292;2023-05-07T09:20:54;103106.03;;;15.61;29.59
57948;BME280;43754;56.992;24.292;2023-05-07T09:23:27;103096.53;;;15.75;28.65
57948;BME280;43754;56.992;24.292;2023-05-07T09:26:00;103097.00;;;15.71;27.09
57948;BME280;43754;56.992;24.292;2023-05-07T09:28:35;103098.31;;;15.67;27.56
57948;BME280;43754;56.992;24.292;2023-05-07T09:31:07;103098.03;;;15.52;27.41
57948;BME280;43754;56.992;24.292;2023-05-07T09:33:39;103094.69;;;15.40;27.36
57948;BME280;43754;56.992;24.292;2023-05-07T09:36:15;103084.88;;;15.75;28.62
57948;BME280;43754;56.992;24.292;2023-05-07T09:38:48;103086.56;;;15.76;27.49
57948;BME280;43754;56.992;24.292;2023-05-07T09:41:23;103079.75;;;15.89;27.24
57948;BME280;43754;56.992;24.292;2023-05-07T09:44:18;103076.59;;;15.94;27.56
57948;BME280;43754;56.992;24.292;2023-05-07T09:46:54;103079.63;;;15.99;27.21
57948;BME280;43754;56.992;24.292;2023-05-07T09:49:39;103086.00;;;16.16;27.31
57948;BME280;43754;56.992;24.292;2023-05-07T09:52:16;103085.53;;;16.20;26.96
57948;BME280;43754;56.992;24.292;2023-05-07T09:54:53;103086.91;;;15.55;26.05
57948;BME280;43754;56.992;24.292;2023-05-07T09:57:30;103094.47;;;14.89;27.63
57948;BME280;43754;56.992;24.292;2023-05-07T10:00:08;103087.16;;;15.16;28.80
57948;BME280;43754;56.992;24.292;2023-05-07T10:02:52;103089.81;;;15.79;28.16
57948;BME280;43754;56.992;24.292;2023-05-07T10:05:36;103088.56;;;15.91;26.66
57948;BME280;43754;56.992;24.292;2023-05-07T10:08:09;103083.56;;;15.79;27.84
57948;BME280;43754;56.992;24.292;2023-05-07T10:10:44;103086.28;;;16.04;26.70
57948;BME280;43754;56.992;24.292;2023-05-07T10:13:21;103077.13;;;15.97;27.69
57948;BME280;43754;56.992;24.292;2023-05-07T10:15:57;103075.03;;;16.17;28.03
57948;BME280;43754;56.992;24.292;2023-05-07T10:18:33;103078.63;;;16.26;26.75
57948;BME280;43754;56.992;24.292;2023-05-07T10:21:16;103072.31;;;16.43;27.24
57948;BME280;43754;56.992;24.292;2023-05-07T10:23:57;103078.69;;;16.60;26.32
57948;BME280;43754;56.992;24.292;2023-05-07T10:26:31;103068.06;;;16.40;26.69
57948;BME280;43754;56.992;24.292;2023-05-07T10:29:10;103072.50;;;16.49;25.49
57948;BME280;43754;56.992;24.292;2023-05-07T10:31:57;103062.13;;;15.59;25.99
57948;BME280;43754;56.992;24.292;2023-05-07T10:34:36;103065.75;;;15.94;28.20
57948;BME280;43754;56.992;24.292;2023-05-07T10:37:09;103063.66;;;16.39;27.53
57948;BME280;43754;56.992;24.292;2023-05-07T10:39:44;103064.16;;;16.35;26.69
57948;BME280;43754;56.992;24.292;2023-05-07T10:42:16;103059.97;;;16.15;27.32
57948;BME280;43754;56.992;24.292;2023-05-07T10:44:54;103061.84;;;16.14;26.62
57948;BME280;43754;56.992;24.292;2023-05-07T10:47:30;103069.03;;;16.31;25.95
57948;BME280;43754;56.992;24.292;2023-05-07T10:50:21;103064.91;;;16.19;26.28
57948;BME280;43754;56.992;24.292;2023-05-07T10:53:23;103062.66;;;15.63;27.29
57948;BME280;43754;56.992;24.292;2023-05-07T10:56:26;103061.72;;;15.72;29.05
57948;BME280;43754;56.992;24.292;2023-05-07T10:59:34;103067.03;;;15.82;28.37
57948;BME280;43754;56.992;24.292;2023-05-07T11:02:20;103057.84;;;15.39;28.45
57948;BME280;43754;56.992;24.292;2023-05-07T11:05:20;103069.19;;;15.25;28.99
57948;BME280;43754;56.992;24.292;2023-05-07T11:08:05;103070.38;;;14.78;29.19
57948;BME280;43754;56.992;24.292;2023-05-07T11:10:50;103064.75;;;14.61;30.07
57948;BME280;43754;56.992;24.292;2023-05-07T11:13:46;103059.97;;;14.83;29.65
57948;BME280;43754;56.992;24.292;2023-05-07T11:16:40;103059.94;;;14.65;29.44
57948;BME280;43754;56.992;24.292;2023-05-07T11:19:50;103063.13;;;14.51;29.47
57948;BME280;43754;56.992;24.292;2023-05-07T11:22:41;103066.44;;;14.72;29.46
57948;BME280;43754;56.992;24.292;2023-05-07T11:25:32;103062.47;;;14.94;29.66
57948;BME280;43754;56.992;24.292;2023-05-07T11:28:15;103055.97;;;15.04;29.99
57948;BME280;43754;56.992;24.292;2023-05-07T11:30:56;103053.63;;;15.19;30.48
57948;BME280;43754;56.992;24.292;2023-05-07T11:33:29;103051.38;;;15.14;30.58
57948;BME280;43754;56.992;24.292;2023-05-07T11:36:04;103055.13;;;15.04;30.24
57948;BME280;43754;56.992;24.292;2023-05-07T11:38:42;103054.97;;;14.88;29.43
57948;BME280;43754;56.992;24.292;2023-05-07T11:41:16;103054.66;;;14.91;29.25
57948;BME280;43754;56.992;24.292;2023-05-07T11:43:58;103048.22;;;14.47;29.61
57948;BME280;43754;56.992;24.292;2023-05-07T11:46:33;103057.69;;;14.60;29.95
57948;BME280;43754;56.992;24.292;2023-05-07T11:49:05;103054.78;;;14.71;31.09
57948;BME280;43754;56.992;24.292;2023-05-07T11:51:38;103053.47;;;14.76;30.03
57948;BME280;43754;56.992;24.292;2023-05-07T11:54:10;103060.75;;;14.93;30.49
57948;BME280;43754;56.992;24.292;2023-05-07T11:56:44;103054.19;;;14.95;30.01
57948;BME280;43754;56.992;24.292;2023-05-07T11:59:17;103061.00;;;14.99;29.49
57948;BME280;43754;56.992;24.292;2023-05-07T12:01:51;103063.81;;;14.80;30.06
57948;BME280;43754;56.992;24.292;2023-05-07T12:04:23;103066.47;;;14.35;30.13
57948;BME280;43754;56.992;24.292;2023-05-07T12:06:55;103055.22;;;14.30;30.72
57948;BME280;43754;56.992;24.292;2023-05-07T12:09:28;103057.06;;;14.39;30.76
57948;BME280;43754;56.992;24.292;2023-05-07T12:12:03;103050.28;;;14.35;31.25
57948;BME280;43754;56.992;24.292;2023-05-07T12:14:37;103058.91;;;14.29;30.85
57948;BME280;43754;56.992;24.292;2023-05-07T12:17:12;103058.41;;;14.53;30.90
57948;BME280;43754;56.992;24.292;2023-05-07T12:19:45;103054.84;;;14.15;30.21
57948;BME280;43754;56.992;24.292;2023-05-07T12:22:17;103057.22;;;14.28;31.34
57948;BME280;43754;56.992;24.292;2023-05-07T12:24:57;103057.53;;;14.15;30.23
57948;BME280;43754;56.992;24.292;2023-05-07T12:27:29;103053.88;;;14.07;31.20
57948;BME280;43754;56.992;24.292;2023-05-07T12:30:02;103050.28;;;13.69;31.70
57948;BME280;43754;56.992;24.292;2023-05-07T12:32:36;103049.69;;;13.75;31.33
57948;BME280;43754;56.992;24.292;2023-05-07T12:35:08;103051.28;;;13.68;30.66
57948;BME280;43754;56.992;24.292;2023-05-07T12:37:41;103061.38;;;13.47;31.51
57948;BME280;43754;56.992;24.292;2023-05-07T12:40:13;103052.16;;;13.30;31.16
57948;BME280;43754;56.992;24.292;2023-05-07T12:42:46;103048.72;;;13.57;31.40
57948;BME280;43754;56.992;24.292;2023-05-07T12:45:18;103048.03;;;13.46;31.27
57948;BME280;43754;56.992;24.292;2023-05-07T12:47:51;103052.81;;;13.71;31.44
57948;BME280;43754;56.992;24.292;2023-05-07T12:50:23;103046.28;;;13.73;31.14
57948;BME280;43754;56.992;24.292;2023-05-07T12:52:55;103043.44;;;13.94;31.73
57948;BME280;43754;56.992;24.292;2023-05-07T12:55:28;103043.28;;;13.86;30.97
57948;BME280;43754;56.992;24.292;2023-05-07T12:58:05;103046.03;;;13.76;31.42
57948;BME280;43754;56.992;24.292;2023-05-07T13:00:39;103049.81;;;13.83;31.95
57948;BME280;43754;56.992;24.292;2023-05-07T13:03:21;103055.34;;;13.82;32.22
57948;BME280;43754;56.992;24.292;2023-05-07T13:05:55;103046.41;;;13.91;32.17
57948;BME280;43754;56.992;24.292;2023-05-07T13:08:31;103055.25;;;13.64;31.39
57948;BME280;43754;56.992;24.292;2023-05-07T13:11:04;103056.94;;;13.85;32.09
57948;BME280;43754;56.992;24.292;2023-05-07T13:13:38;103047.25;;;13.82;32.23
57948;BME280;43754;56.992;24.292;2023-05-07T13:16:11;103049.66;;;13.95;32.50
57948;BME280;43754;56.992;24.292;2023-05-07T13:18:45;103052.28;;;13.67;31.30